createdAt,value
2023-06-05T00:04:07.161Z,99.90
2023-06-05T00:09:09.982Z,99.90
2023-06-05T00:14:12.650Z,99.90
2023-06-05T00:19:15.222Z,99.90
2023-06-05T00:24:17.946Z,99.90
2023-06-05T00:29:20.914Z,99.90
2023-06-05T00:34:23.578Z,99.90
2023-06-05T00:39:26.126Z,99.90
2023-06-05T00:44:28.617Z,99.90
2023-06-05T00:49:31.677Z,99.90
2023-06-05T00:54:35.724Z,99.90
2023-06-05T00:59:38.742Z,99.90
2023-06-05T01:04:44.761Z,99.90
2023-06-05T01:09:47.516Z,99.90
2023-06-05T01:14:50.463Z,99.90
2023-06-05T01:19:53.730Z,99.90
2023-06-05T01:24:58.526Z,99.90
2023-06-05T01:30:04.706Z,99.90
2023-06-05T01:35:17.928Z,99.90
2023-06-05T01:40:25.671Z,99.90
2023-06-05T01:45:28.844Z,99.90
2023-06-05T01:50:37.341Z,99.90
2023-06-05T01:55:42.018Z,99.90
2023-06-05T02:00:46.488Z,99.90
2023-06-05T02:05:49.151Z,99.90
2023-06-05T02:10:53.928Z,99.90
2023-06-05T02:15:58.592Z,99.90
2023-06-05T02:21:01.868Z,99.90
2023-06-05T02:26:04.476Z,99.90
2023-06-05T02:31:07.311Z,99.90
2023-06-05T02:36:10.124Z,99.90
2023-06-05T02:41:12.921Z,99.90
2023-06-05T02:46:16.894Z,99.90
2023-06-05T02:51:21.332Z,99.90
2023-06-05T02:56:28.122Z,99.90
2023-06-05T03:01:35.816Z,99.90
2023-06-05T03:06:44.681Z,99.90
2023-06-05T03:11:47.805Z,99.90
2023-06-05T03:16:51.748Z,99.90
2023-06-05T03:21:55.003Z,99.90
2023-06-05T03:26:59.573Z,99.90
2023-06-05T03:32:02.091Z,99.90
2023-06-05T03:37:06.811Z,99.90
2023-06-05T03:42:12.173Z,99.90
2023-06-05T03:47:15.873Z,97.40
2023-06-05T03:52:24.634Z,97.30
2023-06-05T03:57:27.508Z,94.70
2023-06-05T04:02:30.464Z,91.80
2023-06-05T04:07:35.007Z,88.40
2023-06-05T04:12:38.140Z,82.00
2023-06-05T04:17:42.188Z,76.30
2023-06-05T04:22:47.077Z,74.60
2023-06-05T04:27:52.574Z,72.30
2023-06-05T04:32:55.807Z,68.70
2023-06-05T04:38:01.873Z,65.80
2023-06-05T04:43:06.749Z,63.80
2023-06-05T04:48:10.333Z,58.70
2023-06-05T04:53:13.693Z,55.00
2023-06-05T04:58:18.463Z,51.70
2023-06-05T05:03:22.644Z,49.70
2023-06-05T05:08:25.618Z,50.60
2023-06-05T05:13:28.492Z,48.00
2023-06-05T05:18:31.752Z,45.80
2023-06-05T05:23:35.058Z,44.90
2023-06-05T05:28:38.033Z,45.20
2023-06-05T05:33:41.245Z,44.60
2023-06-05T05:38:43.984Z,44.50
2023-06-05T05:43:46.769Z,44.30
2023-06-05T05:48:49.501Z,46.20
2023-06-05T05:53:52.221Z,44.50
2023-06-05T05:58:54.987Z,43.90
2023-06-05T06:04:00.381Z,42.50
2023-06-05T06:09:05.089Z,44.90
2023-06-05T06:14:07.677Z,47.60
2023-06-05T06:19:15.569Z,50.90
2023-06-05T06:24:21.156Z,52.50
2023-06-05T06:29:26.736Z,53.30
2023-06-05T06:34:30.273Z,55.60
2023-06-05T06:39:32.838Z,57.10
2023-06-05T06:44:35.559Z,55.20
2023-06-05T06:49:38.523Z,57.50
2023-06-05T06:54:41.274Z,55.30
2023-06-05T06:59:44.027Z,56.20
2023-06-05T07:04:46.966Z,54.60
2023-06-05T07:15:55.225Z,52.60
2023-06-05T07:20:57.783Z,50.70
2023-06-05T07:26:01.413Z,51.20
2023-06-05T07:31:04.619Z,49.20
2023-06-05T07:36:07.240Z,52.60
2023-06-05T07:41:12.333Z,51.90
2023-06-05T07:46:16.188Z,53.00
2023-06-05T07:51:19.966Z,52.20
2023-06-05T07:56:25.040Z,50.00
2023-06-05T08:01:28.788Z,51.60
2023-06-05T08:06:31.882Z,50.50
2023-06-05T08:11:34.523Z,51.70
2023-06-05T08:16:37.570Z,50.70
2023-06-05T08:21:40.216Z,50.10
2023-06-05T08:26:42.821Z,50.10
2023-06-05T08:31:45.643Z,47.30
2023-06-05T08:36:48.193Z,47.70
2023-06-05T08:41:53.123Z,50.70
2023-06-05T08:47:01.670Z,49.80
2023-06-05T08:52:08.026Z,48.50
2023-06-05T08:57:11.939Z,48.70
2023-06-05T09:02:14.630Z,46.80
2023-06-05T09:07:17.654Z,48.30
2023-06-05T09:12:20.200Z,48.80
2023-06-05T09:17:23.945Z,49.70
2023-06-05T09:22:36.267Z,48.20
2023-06-05T09:27:39.924Z,50.50
2023-06-05T09:32:42.784Z,49.80
2023-06-05T09:37:47.895Z,47.80
2023-06-05T09:42:50.474Z,51.00
2023-06-05T09:47:54.040Z,48.70
2023-06-05T09:52:57.998Z,49.20
2023-06-05T09:58:11.281Z,49.10
2023-06-05T10:03:18.196Z,49.50
2023-06-05T10:08:21.171Z,48.30
2023-06-05T10:13:24.378Z,48.10
2023-06-05T10:18:27.159Z,51.10
2023-06-05T10:23:30.301Z,49.60
2023-06-05T10:28:45.017Z,48.70
2023-06-05T10:33:57.348Z,48.80
2023-06-05T10:39:01.384Z,49.80
2023-06-05T10:44:04.621Z,51.10
2023-06-05T10:49:21.248Z,47.70
2023-06-05T10:54:24.194Z,47.70
2023-06-05T10:59:35.639Z,50.00
2023-06-05T11:04:50.713Z,47.40
2023-06-05T11:10:06.816Z,45.80
2023-06-05T11:15:14.821Z,47.30
2023-06-05T11:20:26.397Z,47.80
2023-06-05T11:25:30.716Z,47.30
2023-06-05T11:30:49.041Z,47.00
2023-06-05T11:35:53.932Z,47.80
2023-06-05T11:40:57.611Z,47.40
2023-06-05T11:46:00.483Z,46.00
2023-06-05T11:51:06.982Z,46.40
2023-06-05T11:56:18.408Z,48.80
2023-06-05T12:01:26.993Z,46.70
2023-06-05T12:06:30.823Z,47.00
2023-06-05T12:11:34.519Z,46.30
2023-06-05T12:16:41.652Z,47.30
2023-06-05T12:21:46.020Z,46.80
2023-06-05T12:26:54.899Z,46.30
2023-06-05T12:31:59.469Z,46.20
2023-06-05T12:37:02.126Z,47.30
2023-06-05T12:42:05.059Z,46.60
2023-06-05T12:47:08.098Z,46.80
2023-06-05T12:52:10.790Z,47.20
2023-06-05T12:57:13.737Z,48.50
2023-06-05T13:02:16.805Z,49.70
2023-06-05T13:07:19.745Z,49.30
2023-06-05T13:12:22.348Z,46.80
2023-06-05T13:17:25.091Z,47.00
2023-06-05T13:22:27.981Z,46.90
2023-06-05T13:27:30.531Z,47.30
2023-06-05T13:32:38.148Z,47.80
2023-06-05T13:37:41.809Z,47.70
2023-06-05T13:42:44.736Z,49.70
2023-06-05T13:47:48.347Z,47.50
2023-06-05T13:52:51.343Z,48.70
2023-06-05T13:57:53.982Z,47.30
2023-06-05T14:02:57.024Z,47.80
2023-06-05T14:07:59.714Z,47.40
2023-06-05T14:13:02.350Z,47.80
2023-06-05T14:18:06.700Z,48.10
2023-06-05T14:23:09.621Z,46.20
2023-06-05T14:28:12.448Z,46.30
2023-06-05T14:33:15.728Z,48.50
2023-06-05T14:38:18.460Z,46.80
2023-06-05T14:43:23.444Z,46.80
2023-06-05T14:48:28.673Z,47.50
2023-06-05T14:53:33.297Z,48.30
2023-06-05T14:58:35.929Z,46.50
2023-06-05T15:03:38.696Z,46.80
2023-06-05T15:08:41.378Z,47.70
2023-06-05T15:13:43.941Z,49.20
2023-06-05T15:18:47.965Z,48.70
2023-06-05T15:23:50.534Z,47.50
2023-06-05T15:28:53.013Z,47.90
2023-06-05T15:33:55.721Z,46.80
2023-06-05T15:38:58.973Z,47.80
2023-06-05T15:44:02.130Z,48.60
2023-06-05T15:49:04.766Z,48.70
2023-06-05T15:59:17.924Z,47.90
2023-06-05T16:04:20.521Z,48.70
2023-06-05T16:09:23.222Z,48.30
2023-06-05T16:14:26.558Z,48.90
2023-06-05T16:19:30.275Z,50.50
2023-06-05T16:24:34.630Z,49.70
2023-06-05T16:29:37.276Z,49.80
2023-06-05T16:34:41.135Z,50.90
2023-06-05T16:39:45.877Z,50.70
2023-06-05T16:44:48.600Z,51.70
2023-06-05T16:49:51.135Z,51.70
2023-06-05T16:54:53.786Z,50.50
2023-06-05T16:59:56.378Z,50.60
2023-06-05T17:04:59.381Z,48.80
2023-06-05T17:10:02.469Z,48.50
2023-06-05T17:15:06.716Z,49.40
2023-06-05T17:20:09.806Z,49.30
2023-06-05T17:25:12.522Z,49.70
2023-06-05T17:30:15.401Z,49.90
2023-06-05T17:35:18.759Z,50.10
2023-06-05T17:40:22.652Z,51.00
2023-06-05T17:45:26.555Z,51.30
2023-06-05T17:50:30.659Z,52.60
2023-06-05T17:55:33.312Z,55.10
2023-06-05T18:00:37.919Z,55.70
2023-06-05T18:05:41.363Z,55.80
2023-06-05T18:10:44.085Z,56.50
2023-06-05T18:15:46.932Z,57.80
2023-06-05T18:20:49.735Z,59.10
2023-06-05T18:25:52.778Z,59.90
2023-06-05T18:30:55.746Z,60.80
2023-06-05T18:35:58.681Z,61.70
2023-06-05T18:41:02.624Z,62.70
2023-06-05T18:46:06.213Z,64.10
2023-06-05T18:51:09.360Z,65.30
2023-06-05T18:56:12.339Z,65.80
2023-06-05T19:01:16.343Z,66.60
2023-06-05T19:06:19.744Z,66.90
2023-06-05T19:11:22.789Z,67.70
2023-06-05T19:16:25.737Z,68.70
2023-06-05T19:21:28.678Z,69.60
2023-06-05T19:26:31.204Z,71.00
2023-06-05T19:31:33.765Z,71.30
2023-06-05T19:36:39.733Z,71.80
2023-06-05T19:41:43.409Z,73.60
2023-06-05T19:46:46.529Z,73.00
2023-06-05T19:51:50.312Z,73.80
2023-06-05T19:56:53.140Z,75.70
2023-06-05T20:01:55.863Z,75.40
2023-06-05T20:06:58.623Z,76.40
2023-06-05T20:12:02.523Z,76.90
2023-06-05T20:17:08.470Z,79.20
2023-06-05T20:22:11.626Z,80.70
2023-06-05T20:27:14.524Z,85.50
2023-06-05T20:32:19.623Z,88.30
2023-06-05T20:37:31.146Z,90.40
2023-06-05T20:42:35.369Z,93.00
2023-06-05T20:47:40.293Z,99.70
2023-06-05T20:52:43.768Z,99.90
2023-06-05T20:57:46.990Z,99.90
2023-06-05T21:02:49.816Z,99.90
2023-06-05T21:07:52.524Z,99.90
2023-06-05T21:12:55.512Z,99.90
2023-06-05T21:17:58.196Z,99.90
2023-06-05T21:23:00.882Z,99.90
2023-06-05T21:28:03.527Z,99.90
2023-06-05T21:33:06.498Z,99.90
2023-06-05T21:38:09.226Z,99.90
2023-06-05T21:43:11.808Z,99.90
2023-06-05T21:48:14.485Z,99.90
2023-06-05T21:53:17.035Z,99.90
2023-06-05T21:58:19.746Z,99.90
2023-06-05T22:03:22.927Z,99.90
2023-06-05T22:08:26.896Z,99.90
2023-06-05T22:13:30.528Z,99.90
2023-06-05T22:18:33.188Z,99.90
2023-06-05T22:23:36.379Z,99.90
2023-06-05T22:28:39.172Z,99.90
2023-06-05T22:33:41.701Z,99.90
2023-06-05T22:38:44.376Z,99.90
2023-06-05T22:43:46.894Z,99.90
2023-06-05T22:48:50.034Z,99.90
2023-06-05T22:53:53.037Z,99.90
2023-06-05T22:58:56.065Z,99.90
2023-06-05T23:03:58.679Z,99.90
2023-06-05T23:09:01.814Z,99.90
2023-06-05T23:14:04.559Z,99.90
2023-06-05T23:19:07.293Z,99.90
2023-06-05T23:24:10.042Z,99.90
2023-06-05T23:29:13.266Z,99.90
2023-06-05T23:34:15.926Z,99.90
2023-06-05T23:39:20.092Z,99.90
2023-06-05T23:44:22.578Z,99.90
2023-06-05T23:49:25.081Z,99.90
2023-06-05T23:54:27.728Z,99.90
2023-06-05T23:59:30.455Z,99.90
